createdAt,value
2024-02-13T00:01:11.405Z,0.85
2024-02-13T00:02:44.370Z,1.42
2024-02-13T00:04:17.461Z,1.29
2024-02-13T00:05:50.494Z,1.32
2024-02-13T00:07:22.532Z,1.33
2024-02-13T00:08:55.402Z,1.39
2024-02-13T00:10:28.265Z,1.11
2024-02-13T00:12:02.143Z,1.29
2024-02-13T00:13:35.769Z,1.32
2024-02-13T00:15:11.744Z,0.99
2024-02-13T00:16:45.300Z,1.36
2024-02-13T00:18:17.017Z,1.34
2024-02-13T00:19:49.563Z,1.31
2024-02-13T00:21:21.200Z,1.27
2024-02-13T00:22:54.363Z,1.27
2024-02-13T00:24:26.468Z,1.38
2024-02-13T00:25:59.012Z,1.50
2024-02-13T00:27:33.977Z,1.39
2024-02-13T00:29:06.909Z,1.48
2024-02-13T00:30:41.577Z,1.38
2024-02-13T00:32:14.524Z,1.12
2024-02-13T00:33:46.467Z,1.40
2024-02-13T00:35:19.327Z,1.40
2024-02-13T00:36:51.220Z,0.85
2024-02-13T00:38:23.762Z,1.20
2024-02-13T00:39:55.609Z,1.34
2024-02-13T00:41:28.742Z,1.37
2024-02-13T00:43:01.273Z,1.37
2024-02-13T00:44:32.909Z,1.43
2024-02-13T00:46:07.177Z,1.40
2024-02-13T00:47:41.632Z,1.43
2024-02-13T00:49:14.932Z,1.38
2024-02-13T00:50:48.056Z,1.34
2024-02-13T00:52:20.676Z,1.39
2024-02-13T00:53:52.920Z,1.40
2024-02-13T00:55:26.091Z,1.21
2024-02-13T00:56:58.105Z,0.99
2024-02-13T00:58:30.780Z,1.37
2024-02-13T01:00:04.248Z,1.28
2024-02-13T01:01:38.900Z,1.31
2024-02-13T01:03:11.894Z,1.29
2024-02-13T01:04:44.413Z,1.19
2024-02-13T01:06:16.032Z,1.23
2024-02-13T01:07:48.631Z,1.20
2024-02-13T01:09:20.262Z,1.15
2024-02-13T01:10:53.090Z,1.15
2024-02-13T01:12:25.198Z,1.15
2024-02-13T01:13:58.741Z,0.85
2024-02-13T01:15:30.334Z,1.23
2024-02-13T01:17:05.711Z,1.13
2024-02-13T01:18:37.350Z,1.17
2024-02-13T01:20:12.553Z,0.95
2024-02-13T01:21:44.724Z,1.04
2024-02-13T01:23:17.309Z,0.93
2024-02-13T01:24:48.891Z,0.75
2024-02-13T01:26:21.573Z,0.84
2024-02-13T01:27:53.216Z,0.86
2024-02-13T01:29:25.939Z,0.82
2024-02-13T01:30:59.329Z,0.60
2024-02-13T01:32:33.988Z,0.84
2024-02-13T01:34:08.279Z,0.89
2024-02-13T01:35:43.319Z,0.84
2024-02-13T01:37:16.239Z,0.90
2024-02-13T01:38:47.944Z,0.87
2024-02-13T01:40:20.666Z,0.88
2024-02-13T01:41:52.410Z,0.88
2024-02-13T01:43:26.276Z,0.90
2024-02-13T01:44:57.880Z,0.87
2024-02-13T01:46:31.995Z,0.86
2024-02-13T01:48:07.963Z,0.91
2024-02-13T01:49:40.973Z,1.00
2024-02-13T01:51:14.700Z,0.97
2024-02-13T01:52:48.497Z,0.87
2024-02-13T01:54:20.340Z,0.84
2024-02-13T01:55:53.656Z,0.89
2024-02-13T01:57:27.971Z,0.86
2024-02-13T01:59:00.806Z,0.81
2024-02-13T02:00:33.449Z,0.82
2024-02-13T02:02:09.631Z,0.84
2024-02-13T02:03:44.922Z,0.87
2024-02-13T02:05:16.993Z,0.76
2024-02-13T02:06:50.255Z,0.89
2024-02-13T02:08:22.601Z,0.91
2024-02-13T02:09:56.132Z,0.88
2024-02-13T02:11:28.004Z,0.88
2024-02-13T02:13:02.364Z,0.56
2024-02-13T02:14:34.308Z,1.14
2024-02-13T02:16:08.223Z,1.10
2024-02-13T02:17:40.599Z,1.10
2024-02-13T02:19:14.615Z,0.88
2024-02-13T02:20:46.242Z,1.11
2024-02-13T02:22:18.901Z,1.03
2024-02-13T02:23:50.503Z,1.04
2024-02-13T02:25:24.595Z,1.02
2024-02-13T02:26:57.739Z,1.06
2024-02-13T02:28:31.032Z,0.85
2024-02-13T02:30:02.638Z,1.05
2024-02-13T02:31:35.221Z,1.19
2024-02-13T02:33:06.915Z,1.19
2024-02-13T02:34:40.692Z,1.18
2024-02-13T02:36:12.326Z,1.15
2024-02-13T02:37:48.773Z,1.17
2024-02-13T02:39:20.824Z,1.11
2024-02-13T02:40:54.712Z,1.00
2024-02-13T02:42:26.257Z,1.05
2024-02-13T02:43:58.761Z,0.96
2024-02-13T02:45:30.475Z,0.67
2024-02-13T02:47:03.026Z,1.04
2024-02-13T02:48:35.059Z,1.28
2024-02-13T02:50:08.013Z,1.29
2024-02-13T02:51:40.548Z,1.16
2024-02-13T02:53:13.472Z,0.98
2024-02-13T02:54:45.036Z,1.11
2024-02-13T02:56:18.991Z,0.86
2024-02-13T02:57:52.109Z,0.16
2024-02-13T02:59:24.927Z,0.90
2024-02-13T03:00:56.518Z,0.98
2024-02-13T03:02:31.054Z,1.13
2024-02-13T03:04:05.011Z,1.10
2024-02-13T03:05:39.390Z,0.87
2024-02-13T03:07:11.053Z,0.42
2024-02-13T03:08:43.678Z,1.06
2024-02-13T03:10:15.310Z,1.04
2024-02-13T03:11:50.089Z,0.91
2024-02-13T03:13:22.316Z,0.87
2024-02-13T03:14:54.956Z,0.81
2024-02-13T03:16:26.784Z,0.66
2024-02-13T03:17:59.898Z,0.53
2024-02-13T03:19:31.918Z,0.78
2024-02-13T03:21:05.699Z,0.77
2024-02-13T03:22:38.429Z,0.49
2024-02-13T03:24:10.991Z,0.68
2024-02-13T03:25:42.799Z,0.69
2024-02-13T03:27:16.744Z,0.60
2024-02-13T03:28:48.284Z,0.58
2024-02-13T03:30:20.852Z,0.10
2024-02-13T03:31:52.418Z,0.33
2024-02-13T03:33:25.801Z,0.47
2024-02-13T03:34:58.548Z,0.45
2024-02-13T03:36:30.075Z,0.00
2024-02-13T03:38:03.220Z,0.02
2024-02-13T03:39:34.804Z,0.14
2024-02-13T03:41:07.368Z,0.12
2024-02-13T03:42:40.253Z,-0.06
2024-02-13T03:44:13.223Z,0.09
2024-02-13T03:45:45.006Z,-0.02
2024-02-13T03:47:17.559Z,0.02
2024-02-13T03:48:49.319Z,-0.02
2024-02-13T03:50:23.398Z,-0.08
2024-02-13T03:51:55.046Z,-0.06
2024-02-13T03:53:27.947Z,-0.23
2024-02-13T03:54:59.486Z,-0.09
2024-02-13T03:56:32.151Z,-0.08
2024-02-13T03:58:06.062Z,-0.11
2024-02-13T03:59:39.670Z,-0.13
2024-02-13T04:01:11.798Z,-0.16
2024-02-13T04:02:45.519Z,-0.18
2024-02-13T04:04:17.181Z,-0.21
2024-02-13T04:05:50.882Z,-0.26
2024-02-13T04:07:22.487Z,-0.22
2024-02-13T04:08:56.085Z,-0.18
2024-02-13T04:10:27.656Z,-0.21
2024-02-13T04:12:00.187Z,-0.40
2024-02-13T04:13:33.051Z,-0.33
2024-02-13T04:15:06.286Z,-0.37
2024-02-13T04:16:39.297Z,-0.61
2024-02-13T04:18:12.281Z,-0.62
2024-02-13T04:19:44.272Z,-0.63
2024-02-13T04:21:18.093Z,-0.72
2024-02-13T04:22:49.698Z,-0.46
2024-02-13T04:24:22.535Z,-0.48
2024-02-13T04:25:54.115Z,-0.44
2024-02-13T04:27:26.771Z,-0.51
2024-02-13T04:28:59.653Z,-0.54
2024-02-13T04:30:32.811Z,-0.54
2024-02-13T04:32:06.150Z,-0.63
2024-02-13T04:33:37.796Z,-0.68
2024-02-13T04:35:10.846Z,-0.88
2024-02-13T04:36:43.663Z,-0.86
2024-02-13T04:38:15.225Z,-0.73
2024-02-13T04:39:47.692Z,-0.62
2024-02-13T04:41:19.569Z,-0.65
2024-02-13T04:42:52.193Z,-0.65
2024-02-13T04:44:25.093Z,-0.91
2024-02-13T04:45:57.618Z,-0.66
2024-02-13T04:47:30.011Z,-0.56
2024-02-13T04:49:02.701Z,-0.57
2024-02-13T04:50:35.360Z,-0.54
2024-02-13T04:52:12.121Z,-0.56
2024-02-13T04:53:43.760Z,-0.60
2024-02-13T04:55:16.509Z,-0.44
2024-02-13T04:56:48.351Z,-0.35
2024-02-13T04:58:21.405Z,-0.34
2024-02-13T04:59:58.254Z,-0.34
2024-02-13T05:01:31.012Z,-0.62
2024-02-13T05:03:04.453Z,-0.24
2024-02-13T05:04:54.830Z,-0.25
2024-02-13T05:06:45.146Z,-0.43
2024-02-13T05:08:18.044Z,-0.32
2024-02-13T05:09:49.605Z,-0.15
2024-02-13T05:11:22.192Z,-0.36
2024-02-13T05:12:54.519Z,-0.30
2024-02-13T05:14:28.746Z,-0.17
2024-02-13T05:16:01.842Z,-0.14
2024-02-13T05:17:36.245Z,-0.19
2024-02-13T05:19:08.446Z,-0.18
2024-02-13T05:20:41.157Z,-0.38
2024-02-13T05:22:14.480Z,-0.24
2024-02-13T05:23:48.450Z,-0.17
2024-02-13T05:25:19.995Z,-0.14
2024-02-13T05:26:52.546Z,-0.74
2024-02-13T05:28:24.295Z,-0.30
2024-02-13T05:29:57.642Z,-0.48
2024-02-13T05:31:30.708Z,-0.31
2024-02-13T05:33:03.369Z,-0.88
2024-02-13T05:34:35.740Z,-1.13
2024-02-13T05:36:10.800Z,-0.67
2024-02-13T05:37:42.337Z,-0.58
2024-02-13T05:39:15.836Z,-0.56
2024-02-13T05:40:47.438Z,-0.62
2024-02-13T05:42:20.165Z,-0.56
2024-02-13T05:43:53.544Z,-0.64
2024-02-13T05:45:25.046Z,-0.75
2024-02-13T05:46:58.870Z,-0.64
2024-02-13T05:48:30.432Z,-0.75
2024-02-13T05:50:04.780Z,-0.59
2024-02-13T05:51:37.354Z,-0.53
2024-02-13T05:53:09.846Z,-0.50
2024-02-13T05:54:43.712Z,-0.51
2024-02-13T05:56:23.412Z,-0.41
2024-02-13T05:58:00.315Z,-0.59
2024-02-13T05:59:32.920Z,-0.36
2024-02-13T06:01:06.043Z,-0.40
2024-02-13T06:02:39.032Z,-0.29
2024-02-13T06:04:12.224Z,-0.32
2024-02-13T06:05:44.127Z,-0.39
2024-02-13T06:07:16.778Z,-0.40
2024-02-13T06:08:48.406Z,-0.38
2024-02-13T06:10:20.944Z,-0.39
2024-02-13T06:11:53.318Z,-0.56
2024-02-13T06:13:27.603Z,-0.42
2024-02-13T06:15:00.911Z,-0.32
2024-02-13T06:16:33.421Z,-0.41
2024-02-13T06:18:07.992Z,-0.30
2024-02-13T06:19:39.744Z,-0.32
2024-02-13T06:21:12.286Z,-0.40
2024-02-13T06:22:44.791Z,-0.62
2024-02-13T06:24:16.346Z,-0.38
2024-02-13T06:25:48.818Z,-0.34
2024-02-13T06:27:21.344Z,-0.27
2024-02-13T06:28:54.680Z,-0.24
2024-02-13T06:30:26.334Z,-0.22
2024-02-13T06:31:59.706Z,-0.22
2024-02-13T06:33:32.943Z,-0.17
2024-02-13T06:35:06.944Z,-0.20
2024-02-13T06:36:38.490Z,-0.09
2024-02-13T06:38:11.321Z,-0.13
2024-02-13T06:39:43.116Z,-0.12
2024-02-13T06:41:15.680Z,-0.14
2024-02-13T06:42:47.223Z,-0.05
2024-02-13T06:44:23.258Z,-0.22
2024-02-13T06:45:56.230Z,-0.20
2024-02-13T06:47:29.045Z,-0.07
2024-02-13T06:49:03.085Z,-0.02
2024-02-13T06:50:34.732Z,-0.01
2024-02-13T06:52:08.837Z,0.05
2024-02-13T06:53:40.683Z,0.08
2024-02-13T06:55:14.339Z,0.04
2024-02-13T06:56:45.958Z,0.11
2024-02-13T06:58:19.378Z,0.12
2024-02-13T06:59:50.900Z,0.11
2024-02-13T07:01:25.318Z,0.18
2024-02-13T07:02:56.988Z,0.00
2024-02-13T07:04:31.326Z,0.18
2024-02-13T07:06:03.280Z,0.14
2024-02-13T07:07:44.981Z,0.06
2024-02-13T07:09:19.193Z,0.16
2024-02-13T07:10:51.833Z,0.16
2024-02-13T07:12:23.422Z,0.17
2024-02-13T07:13:56.616Z,-0.06
2024-02-13T07:15:29.272Z,-0.47
2024-02-13T07:17:01.146Z,-1.51
2024-02-13T07:18:34.618Z,-1.05
2024-02-13T07:20:12.090Z,0.14
2024-02-13T07:21:44.726Z,0.14
2024-02-13T07:23:16.385Z,-0.45
2024-02-13T07:24:49.436Z,-1.60
2024-02-13T07:26:22.602Z,-0.28
2024-02-13T07:27:54.229Z,0.06
2024-02-13T07:29:26.832Z,0.23
2024-02-13T07:30:58.409Z,0.17
2024-02-13T07:32:30.944Z,-0.79
2024-02-13T07:34:02.816Z,0.16
2024-02-13T07:35:37.047Z,0.19
2024-02-13T07:37:09.494Z,0.24
2024-02-13T07:38:42.019Z,0.28
2024-02-13T07:40:14.396Z,-0.41
2024-02-13T07:41:47.201Z,-0.77
2024-02-13T07:43:18.758Z,-1.02
2024-02-13T07:44:52.592Z,0.35
2024-02-13T07:46:25.336Z,0.40
2024-02-13T07:47:58.541Z,0.09
2024-02-13T07:49:33.584Z,0.12
2024-02-13T07:51:07.834Z,0.44
2024-02-13T07:52:40.657Z,0.50
2024-02-13T07:54:15.923Z,0.42
2024-02-13T07:55:49.584Z,-0.10
2024-02-13T07:57:22.557Z,-0.70
2024-02-13T07:58:54.718Z,0.64
2024-02-13T08:00:29.482Z,0.25
2024-02-13T08:02:01.564Z,0.30
2024-02-13T08:03:35.604Z,0.71
2024-02-13T08:05:08.764Z,0.51
2024-02-13T08:06:42.745Z,0.68
2024-02-13T08:08:15.500Z,-0.05
2024-02-13T08:09:47.476Z,0.56
2024-02-13T08:11:22.533Z,0.13
2024-02-13T08:12:54.227Z,0.78
2024-02-13T08:14:27.062Z,0.61
2024-02-13T08:15:58.711Z,0.82
2024-02-13T08:17:31.816Z,0.82
2024-02-13T08:19:03.594Z,0.40
2024-02-13T08:20:36.301Z,0.27
2024-02-13T08:22:09.276Z,0.88
2024-02-13T08:23:41.814Z,0.88
2024-02-13T08:25:14.783Z,0.91
2024-02-13T08:26:46.563Z,0.92
2024-02-13T08:28:20.361Z,0.92
2024-02-13T08:29:51.886Z,0.70
2024-02-13T08:31:26.723Z,0.87
2024-02-13T08:32:59.410Z,0.90
2024-02-13T08:34:31.175Z,0.91
2024-02-13T08:36:04.222Z,0.81
2024-02-13T08:37:37.386Z,0.82
2024-02-13T08:39:11.124Z,0.53
2024-02-13T08:40:43.430Z,0.85
2024-02-13T08:42:15.912Z,0.86
2024-02-13T08:43:48.624Z,0.69
2024-02-13T08:45:21.960Z,0.86
2024-02-13T08:46:54.740Z,1.01
2024-02-13T08:48:27.423Z,1.04
2024-02-13T08:49:59.205Z,1.03
2024-02-13T08:51:35.435Z,1.10
2024-02-13T08:53:11.691Z,1.04
2024-02-13T08:54:43.226Z,1.10
2024-02-13T08:56:15.746Z,1.13
2024-02-13T08:57:48.346Z,0.98
2024-02-13T08:59:19.974Z,1.20
2024-02-13T09:00:52.584Z,1.22
2024-02-13T09:02:25.187Z,0.90
2024-02-13T09:03:56.844Z,1.30
2024-02-13T09:05:29.502Z,0.69
2024-02-13T09:07:02.074Z,1.40
2024-02-13T09:08:37.962Z,1.49
2024-02-13T09:10:13.173Z,1.42
2024-02-13T09:11:46.873Z,1.50
2024-02-13T09:13:19.456Z,1.31
2024-02-13T09:14:51.135Z,1.57
2024-02-13T09:16:23.622Z,1.30
2024-02-13T09:17:55.258Z,1.84
2024-02-13T09:19:28.022Z,1.83
2024-02-13T09:20:59.790Z,1.83
2024-02-13T09:22:32.331Z,1.89
2024-02-13T09:24:07.366Z,1.87
2024-02-13T09:25:40.023Z,2.00
2024-02-13T09:27:12.857Z,1.28
2024-02-13T09:28:45.926Z,1.98
2024-02-13T09:30:19.232Z,2.11
2024-02-13T09:31:50.734Z,1.95
2024-02-13T09:33:24.464Z,1.60
2024-02-13T09:34:56.398Z,2.15
2024-02-13T09:36:29.015Z,2.13
2024-02-13T09:38:01.565Z,2.26
2024-02-13T09:39:34.741Z,2.24
2024-02-13T09:41:07.496Z,2.35
2024-02-13T09:42:39.019Z,1.32
2024-02-13T09:44:13.914Z,2.42
2024-02-13T09:45:45.865Z,2.46
2024-02-13T09:47:18.634Z,2.57
2024-02-13T09:48:50.850Z,2.51
2024-02-13T09:50:27.084Z,2.59
2024-02-13T09:52:00.102Z,2.73
2024-02-13T09:53:35.369Z,2.81
2024-02-13T09:55:11.479Z,2.89
2024-02-13T09:56:45.305Z,2.54
2024-02-13T09:58:18.692Z,2.99
2024-02-13T09:59:51.598Z,3.14
2024-02-13T10:01:24.947Z,2.98
2024-02-13T10:02:57.733Z,3.27
2024-02-13T10:04:30.336Z,3.24
2024-02-13T10:06:02.944Z,3.32
2024-02-13T10:07:38.071Z,3.48
2024-02-13T10:09:12.874Z,3.02
2024-02-13T10:10:45.992Z,3.45
2024-02-13T10:12:18.997Z,3.06
2024-02-13T10:13:51.450Z,3.37
2024-02-13T10:15:23.358Z,3.54
2024-02-13T10:16:57.239Z,3.45
2024-02-13T10:18:29.212Z,3.69
2024-02-13T10:20:02.851Z,3.61
2024-02-13T10:21:37.002Z,3.79
2024-02-13T10:23:13.675Z,3.33
2024-02-13T10:24:46.593Z,3.64
2024-02-13T10:26:20.415Z,3.59
2024-02-13T10:27:54.358Z,3.55
2024-02-13T10:29:26.826Z,3.69
2024-02-13T10:30:58.429Z,3.67
2024-02-13T10:32:34.455Z,3.84
2024-02-13T10:34:08.312Z,3.41
2024-02-13T10:35:41.022Z,3.89
2024-02-13T10:37:15.759Z,3.90
2024-02-13T10:38:50.643Z,3.75
2024-02-13T10:40:24.050Z,3.88
2024-02-13T10:42:00.285Z,3.93
2024-02-13T10:43:33.818Z,3.98
2024-02-13T10:45:07.900Z,4.21
2024-02-13T10:46:43.180Z,3.83
2024-02-13T10:48:24.261Z,4.23
2024-02-13T10:50:00.323Z,4.36
2024-02-13T10:51:34.924Z,4.34
2024-02-13T10:53:08.351Z,4.47
2024-02-13T10:54:47.129Z,4.31
2024-02-13T10:56:22.968Z,4.27
2024-02-13T10:57:59.266Z,4.12
2024-02-13T10:59:32.245Z,4.25
2024-02-13T11:01:06.443Z,4.24
2024-02-13T11:02:38.246Z,4.17
2024-02-13T11:04:13.736Z,4.48
2024-02-13T11:05:46.996Z,4.52
2024-02-13T11:07:20.374Z,4.32
2024-02-13T11:08:52.556Z,4.36
2024-02-13T11:10:35.478Z,4.54
2024-02-13T11:12:10.104Z,4.55
2024-02-13T11:13:44.079Z,4.62
2024-02-13T11:15:18.618Z,4.64
2024-02-13T11:16:52.458Z,4.69
2024-02-13T11:18:25.202Z,4.91
2024-02-13T11:19:59.455Z,4.75
2024-02-13T11:21:35.001Z,4.81
2024-02-13T11:23:12.892Z,4.99
2024-02-13T11:24:50.741Z,4.82
2024-02-13T11:26:22.572Z,5.03
2024-02-13T11:27:58.893Z,4.91
2024-02-13T11:29:33.588Z,4.82
2024-02-13T11:31:13.395Z,4.89
2024-02-13T11:32:48.154Z,4.83
2024-02-13T11:34:20.582Z,4.50
2024-02-13T11:35:56.107Z,4.74
2024-02-13T11:37:28.574Z,4.71
2024-02-13T11:39:04.173Z,4.52
2024-02-13T11:40:41.306Z,4.89
2024-02-13T11:42:18.614Z,4.93
2024-02-13T11:43:51.173Z,4.92
2024-02-13T11:45:27.250Z,4.78
2024-02-13T11:46:59.878Z,3.99
2024-02-13T11:48:33.978Z,4.72
2024-02-13T11:50:09.569Z,4.91
2024-02-13T11:51:42.898Z,4.76
2024-02-13T11:53:16.960Z,4.86
2024-02-13T11:54:50.616Z,4.91
2024-02-13T11:56:23.935Z,5.08
2024-02-13T11:57:56.431Z,4.94
2024-02-13T11:59:27.980Z,5.03
2024-02-13T12:01:05.413Z,5.16
2024-02-13T12:02:39.602Z,4.69
2024-02-13T12:04:14.277Z,4.88
2024-02-13T12:05:49.859Z,4.88
2024-02-13T12:07:22.978Z,5.08
2024-02-13T12:08:56.039Z,5.10
2024-02-13T12:10:29.177Z,5.19
2024-02-13T12:12:01.797Z,5.02
2024-02-13T12:13:35.377Z,5.08
2024-02-13T12:15:11.455Z,4.92
2024-02-13T12:16:45.349Z,4.99
2024-02-13T12:18:18.843Z,5.15
2024-02-13T12:19:51.742Z,4.20
2024-02-13T12:21:23.386Z,5.21
2024-02-13T12:22:59.637Z,5.21
2024-02-13T12:24:33.976Z,5.22
2024-02-13T12:26:07.290Z,4.20
2024-02-13T12:27:40.025Z,5.01
2024-02-13T12:29:16.015Z,5.33
2024-02-13T12:30:50.086Z,5.30
2024-02-13T12:32:23.228Z,5.53
2024-02-13T12:34:03.312Z,5.66
2024-02-13T12:35:37.580Z,5.96
2024-02-13T12:37:11.139Z,5.74
2024-02-13T12:38:42.793Z,6.03
2024-02-13T12:40:17.607Z,5.88
2024-02-13T12:41:52.351Z,5.43
2024-02-13T12:43:28.242Z,5.56
2024-02-13T12:45:00.380Z,5.11
2024-02-13T12:46:37.884Z,5.93
2024-02-13T12:48:11.438Z,5.91
2024-02-13T12:49:45.190Z,6.11
2024-02-13T12:51:18.817Z,6.11
2024-02-13T12:52:51.501Z,5.92
2024-02-13T12:54:24.750Z,5.90
2024-02-13T12:55:59.720Z,5.86
2024-02-13T12:57:32.000Z,5.85
2024-02-13T12:59:04.485Z,5.82
2024-02-13T13:00:36.335Z,5.89
2024-02-13T13:02:09.890Z,5.92
2024-02-13T13:03:43.660Z,5.89
2024-02-13T13:05:16.521Z,4.88
2024-02-13T13:06:51.839Z,5.84
2024-02-13T13:08:25.483Z,6.06
2024-02-13T13:09:57.513Z,5.91
2024-02-13T13:11:30.227Z,5.48
2024-02-13T13:13:01.826Z,6.17
2024-02-13T13:14:35.622Z,6.01
2024-02-13T13:16:08.256Z,6.12
2024-02-13T13:17:42.753Z,5.71
2024-02-13T13:19:16.066Z,5.72
2024-02-13T13:20:49.551Z,5.79
2024-02-13T13:22:23.458Z,5.81
2024-02-13T13:23:56.249Z,5.54
2024-02-13T13:25:32.769Z,5.74
2024-02-13T13:27:09.639Z,5.78
2024-02-13T13:28:41.218Z,5.76
2024-02-13T13:30:16.821Z,5.72
2024-02-13T13:31:50.110Z,5.86
2024-02-13T13:33:23.925Z,5.49
2024-02-13T13:35:01.593Z,5.87
2024-02-13T13:36:34.382Z,5.96
2024-02-13T13:38:05.900Z,5.94
2024-02-13T13:39:40.863Z,5.90
2024-02-13T13:41:14.323Z,5.80
2024-02-13T13:42:46.918Z,5.45
2024-02-13T13:44:19.026Z,5.94
2024-02-13T13:45:56.561Z,5.81
2024-02-13T13:47:29.363Z,5.86
2024-02-13T13:49:01.099Z,6.02
2024-02-13T13:50:37.155Z,5.93
2024-02-13T13:52:09.720Z,6.09
2024-02-13T13:53:41.378Z,5.57
2024-02-13T13:55:14.313Z,5.86
2024-02-13T13:56:45.849Z,5.76
2024-02-13T13:58:18.429Z,5.65
2024-02-13T13:59:49.961Z,5.81
2024-02-13T14:01:22.652Z,5.62
2024-02-13T14:02:54.349Z,5.69
2024-02-13T14:04:27.467Z,5.61
2024-02-13T14:06:00.684Z,5.72
2024-02-13T14:07:33.298Z,5.81
2024-02-13T14:09:04.907Z,5.82
2024-02-13T14:10:38.203Z,5.45
2024-02-13T14:12:09.880Z,5.68
2024-02-13T14:13:42.426Z,5.72
2024-02-13T14:15:13.955Z,5.72
2024-02-13T14:16:46.456Z,5.81
2024-02-13T14:18:19.299Z,5.89
2024-02-13T14:19:54.670Z,5.76
2024-02-13T14:21:29.408Z,5.96
2024-02-13T14:23:02.208Z,6.22
2024-02-13T14:24:35.223Z,6.15
2024-02-13T14:26:07.706Z,6.25
2024-02-13T14:27:39.606Z,6.28
2024-02-13T14:29:13.982Z,6.06
2024-02-13T14:30:45.656Z,6.00
2024-02-13T14:32:19.409Z,5.83
2024-02-13T14:33:51.229Z,5.86
2024-02-13T14:35:23.870Z,5.95
2024-02-13T14:36:59.565Z,6.00
2024-02-13T14:38:32.909Z,6.03
2024-02-13T14:40:07.192Z,6.15
2024-02-13T14:41:42.500Z,6.23
2024-02-13T14:43:16.405Z,6.16
2024-02-13T14:44:48.272Z,6.24
2024-02-13T14:46:20.785Z,6.23
2024-02-13T14:47:53.035Z,5.92
2024-02-13T14:49:26.475Z,6.20
2024-02-13T14:50:58.946Z,6.05
2024-02-13T14:52:32.802Z,6.12
2024-02-13T14:54:04.724Z,5.09
2024-02-13T14:55:39.572Z,6.41
2024-02-13T14:57:12.341Z,6.32
2024-02-13T14:58:46.506Z,5.74
2024-02-13T15:00:21.631Z,5.87
2024-02-13T15:01:55.687Z,5.86
2024-02-13T15:03:27.214Z,6.05
2024-02-13T15:05:00.007Z,5.73
2024-02-13T15:06:31.807Z,5.94
2024-02-13T15:08:06.469Z,5.83
2024-02-13T15:09:37.999Z,5.86
2024-02-13T15:11:10.551Z,5.64
2024-02-13T15:12:42.112Z,5.76
2024-02-13T15:14:14.838Z,5.73
2024-02-13T15:15:49.456Z,5.32
2024-02-13T15:17:22.512Z,5.65
2024-02-13T15:18:54.383Z,5.78
2024-02-13T15:20:27.005Z,5.41
2024-02-13T15:21:59.166Z,5.70
2024-02-13T15:23:33.181Z,5.64
2024-02-13T15:25:07.687Z,5.64
2024-02-13T15:26:39.469Z,5.64
2024-02-13T15:28:11.914Z,5.64
2024-02-13T15:29:44.055Z,5.52
2024-02-13T15:31:16.691Z,5.51
2024-02-13T15:32:49.297Z,4.86
2024-02-13T15:34:21.447Z,5.44
2024-02-13T15:36:03.935Z,5.55
2024-02-13T15:37:54.811Z,4.80
2024-02-13T15:39:46.387Z,5.40
2024-02-13T15:41:36.319Z,5.44
2024-02-13T15:43:26.738Z,5.40
2024-02-13T15:45:17.099Z,5.27
2024-02-13T15:47:05.715Z,5.25
2024-02-13T15:48:38.453Z,5.19
2024-02-13T15:50:12.324Z,5.31
2024-02-13T15:51:46.146Z,5.31
2024-02-13T15:53:18.548Z,5.21
2024-02-13T15:54:53.038Z,5.35
2024-02-13T15:56:24.575Z,5.11
2024-02-13T15:57:57.082Z,5.25
2024-02-13T15:59:29.532Z,5.25
2024-02-13T16:01:02.750Z,5.19
2024-02-13T16:02:36.882Z,5.08
2024-02-13T16:04:11.941Z,5.13
2024-02-13T16:05:43.601Z,4.65
2024-02-13T16:07:20.472Z,5.11
2024-02-13T16:08:52.701Z,5.22
2024-02-13T16:10:29.747Z,5.13
2024-02-13T16:12:01.970Z,4.91
2024-02-13T16:13:34.480Z,5.09
2024-02-13T16:15:09.565Z,4.43
2024-02-13T16:16:42.113Z,4.95
2024-02-13T16:18:14.891Z,5.02
2024-02-13T16:19:46.642Z,4.85
2024-02-13T16:21:19.251Z,4.94
2024-02-13T16:22:51.797Z,4.96
2024-02-13T16:24:23.357Z,4.96
2024-02-13T16:25:57.464Z,4.90
2024-02-13T16:27:29.040Z,4.91
2024-02-13T16:29:02.111Z,4.92
2024-02-13T16:30:34.491Z,4.04
2024-02-13T16:32:08.390Z,4.49
2024-02-13T16:33:40.078Z,4.86
2024-02-13T16:35:13.014Z,4.83
2024-02-13T16:36:44.556Z,4.80
2024-02-13T16:38:18.245Z,4.72
2024-02-13T16:39:49.782Z,4.76
2024-02-13T16:41:23.722Z,4.69
2024-02-13T16:42:56.961Z,4.71
2024-02-13T16:44:31.213Z,4.74
2024-02-13T16:46:05.400Z,4.71
2024-02-13T16:47:38.875Z,4.68
2024-02-13T16:49:12.711Z,4.71
2024-02-13T16:50:45.520Z,4.70
2024-02-13T16:52:17.626Z,4.63
2024-02-13T16:53:50.234Z,4.64
2024-02-13T16:55:25.511Z,4.65
2024-02-13T16:57:00.235Z,4.61
2024-02-13T16:58:31.937Z,4.60
2024-02-13T17:00:05.162Z,4.16
2024-02-13T17:01:37.971Z,4.52
2024-02-13T17:03:10.569Z,4.55
2024-02-13T17:04:44.965Z,3.31
2024-02-13T17:06:17.601Z,4.48
2024-02-13T17:07:50.360Z,4.48
2024-02-13T17:09:21.909Z,4.41
2024-02-13T17:10:54.675Z,4.43
2024-02-13T17:12:27.619Z,4.42
2024-02-13T17:14:00.190Z,4.38
2024-02-13T17:15:31.756Z,4.23
2024-02-13T17:17:05.957Z,4.39
2024-02-13T17:18:37.700Z,4.30
2024-02-13T17:20:13.138Z,4.30
2024-02-13T17:21:45.508Z,3.90
2024-02-13T17:23:18.686Z,3.19
2024-02-13T17:24:50.384Z,4.08
2024-02-13T17:26:24.093Z,4.32
2024-02-13T17:27:57.037Z,3.98
2024-02-13T17:29:29.804Z,4.30
2024-02-13T17:31:01.372Z,4.11
2024-02-13T17:32:34.059Z,4.28
2024-02-13T17:34:06.957Z,4.22
2024-02-13T17:35:38.778Z,4.20
2024-02-13T17:37:11.306Z,2.50
2024-02-13T17:38:43.096Z,4.25
2024-02-13T17:40:16.179Z,4.19
2024-02-13T17:41:48.389Z,4.22
2024-02-13T17:43:22.408Z,4.19
2024-02-13T17:44:54.015Z,2.73
2024-02-13T17:46:26.871Z,4.27
2024-02-13T17:47:59.099Z,4.26
2024-02-13T17:49:31.804Z,4.21
2024-02-13T17:51:03.645Z,4.08
2024-02-13T17:52:36.467Z,4.23
2024-02-13T17:54:09.690Z,4.22
2024-02-13T17:55:41.581Z,4.20
2024-02-13T17:57:14.138Z,4.18
2024-02-13T17:58:47.039Z,4.20
2024-02-13T18:00:21.066Z,4.03
2024-02-13T18:01:53.563Z,4.18
2024-02-13T18:03:26.737Z,4.15
2024-02-13T18:04:58.366Z,4.11
2024-02-13T18:06:31.053Z,4.15
2024-02-13T18:08:05.226Z,4.16
2024-02-13T18:09:38.350Z,4.12
2024-02-13T18:11:10.102Z,4.13
2024-02-13T18:12:44.713Z,4.18
2024-02-13T18:14:19.004Z,3.72
2024-02-13T18:15:51.503Z,4.00
2024-02-13T18:17:27.206Z,4.18
2024-02-13T18:18:59.246Z,3.48
2024-02-13T18:20:32.087Z,3.74
2024-02-13T18:22:03.951Z,2.61
2024-02-13T18:23:36.525Z,4.04
2024-02-13T18:25:09.769Z,4.11
2024-02-13T18:26:42.422Z,3.80
2024-02-13T18:28:14.649Z,4.10
2024-02-13T18:29:50.608Z,4.13
2024-02-13T18:31:22.317Z,4.09
2024-02-13T18:32:55.340Z,3.99
2024-02-13T18:34:26.999Z,4.15
2024-02-13T18:35:59.696Z,4.14
2024-02-13T18:37:31.395Z,3.51
2024-02-13T18:39:04.227Z,3.31
2024-02-13T18:40:35.928Z,4.06
2024-02-13T18:42:08.816Z,4.08
2024-02-13T18:43:40.505Z,4.07
2024-02-13T18:45:14.816Z,2.47
2024-02-13T18:46:47.432Z,3.68
2024-02-13T18:48:20.184Z,4.06
2024-02-13T18:49:52.803Z,4.02
2024-02-13T18:51:25.409Z,4.06
2024-02-13T18:52:57.562Z,3.51
2024-02-13T18:54:30.110Z,4.07
2024-02-13T18:56:02.795Z,4.04
2024-02-13T18:57:34.863Z,4.08
2024-02-13T18:59:07.331Z,3.62
2024-02-13T19:00:40.211Z,4.13
2024-02-13T19:02:15.049Z,3.34
2024-02-13T19:03:49.143Z,4.18
2024-02-13T19:05:20.991Z,3.98
2024-02-13T19:06:54.243Z,3.79
2024-02-13T19:08:26.982Z,4.20
2024-02-13T19:09:58.584Z,4.18
2024-02-13T19:11:31.099Z,4.07
2024-02-13T19:13:03.991Z,3.92
2024-02-13T19:14:36.532Z,3.87
2024-02-13T19:16:09.592Z,4.20
2024-02-13T19:17:42.620Z,4.20
2024-02-13T19:19:14.645Z,4.26
2024-02-13T19:20:48.455Z,3.90
2024-02-13T19:22:20.118Z,4.34
2024-02-13T19:23:53.003Z,3.59
2024-02-13T19:25:24.721Z,4.20
2024-02-13T19:26:58.686Z,4.11
2024-02-13T19:28:30.962Z,4.39
2024-02-13T19:30:04.053Z,4.38
2024-02-13T19:31:38.727Z,3.89
2024-02-13T19:33:11.138Z,3.74
2024-02-13T19:34:44.096Z,4.07
2024-02-13T19:36:17.406Z,3.94
2024-02-13T19:37:52.023Z,4.11
2024-02-13T19:39:23.993Z,3.55
2024-02-13T19:40:56.868Z,2.96
2024-02-13T19:42:31.368Z,2.64
2024-02-13T19:44:04.268Z,4.52
2024-02-13T19:45:37.629Z,3.45
2024-02-13T19:47:11.763Z,4.49
2024-02-13T19:48:43.599Z,4.56
2024-02-13T19:50:17.461Z,3.67
2024-02-13T19:51:49.322Z,4.34
2024-02-13T19:53:22.145Z,4.17
2024-02-13T19:54:54.195Z,4.59
2024-02-13T19:56:28.945Z,4.43
2024-02-13T19:58:02.023Z,4.32
2024-02-13T19:59:33.856Z,3.77
2024-02-13T20:01:07.226Z,4.54
2024-02-13T20:02:40.353Z,4.66
2024-02-13T20:04:13.256Z,3.62
2024-02-13T20:05:45.169Z,4.35
2024-02-13T20:07:18.264Z,4.76
2024-02-13T20:08:51.799Z,4.73
2024-02-13T20:10:24.024Z,4.65
2024-02-13T20:11:56.861Z,4.67
2024-02-13T20:13:28.668Z,4.77
2024-02-13T20:15:01.810Z,3.99
2024-02-13T20:16:34.719Z,3.45
2024-02-13T20:18:12.547Z,4.75
2024-02-13T20:19:45.000Z,4.55
2024-02-13T20:21:17.859Z,4.32
2024-02-13T20:22:50.035Z,4.64
2024-02-13T20:24:25.089Z,4.83
2024-02-13T20:25:58.399Z,4.09
2024-02-13T20:27:31.563Z,4.83
2024-02-13T20:29:04.396Z,3.67
2024-02-13T20:30:40.211Z,3.36
2024-02-13T20:32:15.300Z,4.21
2024-02-13T20:33:49.340Z,4.43
2024-02-13T20:35:22.635Z,4.03
2024-02-13T20:36:58.289Z,3.65